Time;durP1;ratioP1;P1;durP2;ratioP2;P2;SDS_P1;SDS_P2;PMS_P1;PMS_P2;Temp;Humidity;BMP_temperature;BMP_pressure;BME280_temperature;BME280_humidity;BME280_pressure;Samples;Min_cycle;Max_cycle;Signal;HPM_P1;HPM_P2
2022/08/14 00:01:44;;;;;;;1.35;1.33;;;25.40;50.90;;;;;;5046957;28;20064;-60
2022/08/14 00:04:21;;;;;;;1.55;1.50;;;25.40;50.90;;;;;;5047677;28;20129;-60
2022/08/14 00:07:02;;;;;;;1.65;1.55;;;25.40;50.90;;;;;;5047287;28;20287;-60
2022/08/14 00:09:29;;;;;;;1.67;1.58;;;25.40;50.90;;;;;;5047357;28;20052;-59
2022/08/14 00:12:00;;;;;;;1.55;1.48;;;25.40;50.90;;;;;;5047551;28;20045;-60
2022/08/14 00:14:29;;;;;;;1.40;1.40;;;25.40;50.90;;;;;;5047076;28;20119;-59
2022/08/14 00:16:57;;;;;;;1.10;1.10;;;25.40;50.80;;;;;;5044699;28;20045;-60
2022/08/14 00:19:27;;;;;;;1.50;1.40;;;25.40;50.90;;;;;;5044809;28;20122;-59
2022/08/14 00:21:55;;;;;;;2.13;1.58;;;25.40;50.90;;;;;;5046726;28;20098;-60
2022/08/14 00:24:23;;;;;;;1.52;1.42;;;25.40;50.90;;;;;;5046932;28;20136;-59
2022/08/14 00:26:57;;;;;;;1.90;1.60;;;25.40;50.90;;;;;;5046857;28;20284;-60
2022/08/14 00:29:31;;;;;;;1.60;1.50;;;25.40;50.90;;;;;;5045830;28;20421;-59
2022/08/14 00:32:07;;;;;;;1.30;1.30;;;25.40;50.90;;;;;;5046695;28;20053;-60
2022/08/14 00:34:55;;;;;;;1.40;1.30;;;25.40;50.90;;;;;;5046110;28;20051;-60
2022/08/14 00:37:23;;;;;;;1.30;1.30;;;25.40;50.90;;;;;;5046460;28;20079;-60
2022/08/14 00:39:50;;;;;;;1.17;1.17;;;25.40;50.90;;;;;;5046964;28;20110;-60
2022/08/14 00:42:22;;;;;;;1.30;1.30;;;25.40;50.90;;;;;;5045203;28;20060;-59
2022/08/14 00:45:12;;;;;;;1.02;1.02;;;25.40;50.90;;;;;;5046678;28;20041;-60
2022/08/14 00:47:41;;;;;;;1.55;1.45;;;25.40;50.90;;;;;;5029209;28;20349;-59
2022/08/14 00:50:14;;;;;;;1.40;1.40;;;25.40;50.90;;;;;;5042144;28;20094;-60
2022/08/14 00:52:51;;;;;;;1.77;1.67;;;25.40;50.90;;;;;;5045222;28;20066;-59
2022/08/14 00:55:19;;;;;;;1.50;1.40;;;25.40;50.90;;;;;;5046425;28;20333;-59
2022/08/14 00:58:29;;;;;;;1.67;1.58;;;25.40;50.90;;;;;;5046512;28;20052;-59
2022/08/14 01:00:38;;;;;;;1.40;1.35;;;25.40;50.90;;;;;;5046204;28;20045;-60
2022/08/14 01:03:18;;;;;;;1.52;1.42;;;25.40;50.90;;;;;;5044815;28;20418;-60
2022/08/14 01:05:49;;;;;;;1.33;1.33;;;25.40;50.90;;;;;;5028754;28;20500;-60
2022/08/14 01:08:26;;;;;;;1.48;1.48;;;25.40;51.00;;;;;;5046212;28;20053;-60
2022/08/14 01:11:14;;;;;;;1.27;1.27;;;25.40;51.00;;;;;;5045598;28;20055;-59
2022/08/14 01:13:48;;;;;;;1.48;1.40;;;25.40;51.00;;;;;;5028451;28;20095;-60
2022/08/14 01:16:29;;;;;;;1.20;1.20;;;25.40;51.00;;;;;;5046307;28;20146;-59
2022/08/14 01:21:46;;;;;;;1.60;1.50;;;25.40;51.00;;;;;;5040259;28;20080;-60
2022/08/14 01:24:20;;;;;;;1.13;1.13;;;25.30;50.90;;;;;;5046072;28;20485;-59
2022/08/14 01:26:58;;;;;;;1.80;1.70;;;25.40;51.00;;;;;;5045940;28;20045;-59
2022/08/14 01:29:28;;;;;;;;;;;25.40;51.00;;;;;;5046163;28;20345;-59
2022/08/14 01:32:17;;;;;;;1.27;1.25;;;25.40;51.00;;;;;;5045593;28;20467;-60
2022/08/14 01:34:53;;;;;;;1.50;1.40;;;25.40;51.00;;;;;;5045654;28;20048;-59
2022/08/14 01:37:45;;;;;;;1.67;1.58;;;25.40;51.00;;;;;;5044551;28;20509;-59
2022/08/14 01:40:24;;;;;;;1.23;1.23;;;25.40;51.50;;;;;;5045736;28;20051;-59
2022/08/14 01:43:13;;;;;;;1.20;1.20;;;25.40;51.00;;;;;;5045478;28;20059;-59
2022/08/14 01:45:42;;;;;;;1.45;1.45;;;25.40;51.00;;;;;;5045430;28;20053;-59
2022/08/14 01:48:15;;;;;;;1.65;1.55;;;25.40;51.00;;;;;;5045680;28;20055;-60
2022/08/14 01:50:46;;;;;;;1.70;1.60;;;25.40;51.00;;;;;;5045281;28;20040;-60
2022/08/14 01:53:16;;;;;;;1.38;1.30;;;25.40;51.00;;;;;;5040963;28;20041;-59
2022/08/14 01:55:43;;;;;;;1.27;1.17;;;25.40;51.00;;;;;;5028354;28;20118;-59
2022/08/14 01:58:12;;;;;;;1.65;1.55;;;25.40;51.00;;;;;;5045646;28;20476;-61
2022/08/14 02:00:52;;;;;;;1.00;1.00;;;25.40;51.00;;;;;;5044972;28;20095;-59
2022/08/14 02:03:30;;;;;;;1.30;1.30;;;25.40;51.00;;;;;;5045036;28;20084;-60
2022/08/14 02:06:01;;;;;;;1.50;1.40;;;25.40;50.90;;;;;;5044978;28;20465;-59
2022/08/14 02:08:49;;;;;;;1.60;1.50;;;25.40;51.00;;;;;;5045115;28;20072;-59
2022/08/14 02:11:22;;;;;;;1.10;1.10;;;25.40;51.00;;;;;;5045431;28;20049;-59
2022/08/14 02:14:03;;;;;;;0.95;0.95;;;25.40;51.00;;;;;;5044277;28;20052;-59
2022/08/14 02:16:42;;;;;;;1.15;1.02;;;25.40;51.00;;;;;;5045167;28;20336;-60
2022/08/14 02:19:15;;;;;;;1.30;1.30;;;25.40;51.00;;;;;;5045331;28;20175;-60
2022/08/14 02:21:45;;;;;;;1.38;1.27;;;25.40;51.00;;;;;;5045266;28;20049;-60
2022/08/14 02:24:19;;;;;;;1.50;1.40;;;25.40;51.00;;;;;;5039925;28;20076;-60
2022/08/14 02:27:08;;;;;;;1.35;1.30;;;25.40;51.00;;;;;;5044867;28;20426;-60
2022/08/14 02:29:55;;;;;;;1.55;1.45;;;25.40;51.00;;;;;;5045026;28;20044;-59
2022/08/14 02:32:33;;;;;;;1.45;1.35;;;25.40;51.00;;;;;;5045163;28;20058;-59
2022/08/14 02:35:15;;;;;;;1.60;1.50;;;25.40;51.00;;;;;;5044643;28;20051;-59
2022/08/14 02:37:47;;;;;;;1.20;1.20;;;25.40;51.00;;;;;;5045088;28;20079;-59
2022/08/14 02:40:20;;;;;;;1.10;1.10;;;25.30;50.90;;;;;;5043721;28;20348;-59
2022/08/14 02:43:00;;;;;;;1.30;1.20;;;25.40;51.00;;;;;;5045245;28;20048;-60
2022/08/14 02:45:32;;;;;;;1.33;1.33;;;25.40;51.00;;;;;;5043279;28;20472;-59
2022/08/14 02:48:11;;;;;;;1.27;1.27;;;25.30;51.00;;;;;;5045218;28;20052;-59
2022/08/14 02:51:01;;;;;;;1.30;1.30;;;25.40;51.10;;;;;;5043374;28;20207;-59
2022/08/14 02:53:29;;;;;;;1.35;1.30;;;25.40;51.00;;;;;;5046491;28;20370;-59
2022/08/14 02:56:00;;;;;;;1.10;1.10;;;25.30;51.00;;;;;;5041439;28;20486;-59
2022/08/14 02:58:32;;;;;;;1.30;1.30;;;25.30;51.00;;;;;;5045891;28;20041;-59
2022/08/14 03:00:59;;;;;;;1.30;1.20;;;25.40;51.10;;;;;;5046354;28;20049;-59
2022/08/14 03:03:28;;;;;;;1.55;1.45;;;25.30;51.00;;;;;;5049872;28;20107;-60
2022/08/14 03:06:05;;;;;;;1.35;1.35;;;25.30;51.00;;;;;;5049192;28;20067;-59
2022/08/14 03:08:36;;;;;;;1.17;1.17;;;25.30;51.00;;;;;;5049971;28;20053;-60
2022/08/14 03:11:08;;;;;;;1.10;1.10;;;25.30;51.00;;;;;;5049358;28;20485;-59
2022/08/14 03:13:38;;;;;;;1.50;1.40;;;25.30;51.00;;;;;;5050008;28;20202;-59
2022/08/14 03:16:15;;;;;;;1.17;1.17;;;25.30;51.00;;;;;;5048014;28;20080;-59
2022/08/14 03:18:59;;;;;;;1.55;1.55;;;25.30;51.10;;;;;;5049638;28;20129;-60
2022/08/14 03:21:28;;;;;;;1.00;1.00;;;25.30;51.10;;;;;;5048511;28;20138;-60
2022/08/14 03:24:08;;;;;;;;;;;25.30;51.10;;;;;;5048301;28;20337;-59
2022/08/14 03:26:48;;;;;;;1.30;1.30;;;25.30;51.10;;;;;;5043700;28;20328;-59
2022/08/14 03:29:24;;;;;;;1.65;1.55;;;25.30;51.10;;;;;;5046732;28;20128;-59
2022/08/14 03:31:53;;;;;;;1.30;1.30;;;25.30;51.10;;;;;;5048278;28;20445;-59
2022/08/14 03:34:22;;;;;;;1.30;1.25;;;25.30;51.10;;;;;;5048023;28;20076;-59
2022/08/14 03:37:11;;;;;;;1.05;1.05;;;25.30;51.10;;;;;;5047762;28;20133;-59
2022/08/14 03:39:58;;;;;;;1.27;1.27;;;25.30;51.10;;;;;;5047496;28;20144;-59
2022/08/14 03:42:26;;;;;;;1.45;1.35;;;25.30;51.60;;;;;;5046746;28;20290;-59
2022/08/14 03:45:13;;;;;;;1.02;1.02;;;25.30;51.10;;;;;;5048576;28;20045;-59
2022/08/14 03:48:14;;;;;;;1.10;1.10;;;25.30;51.10;;;;;;5048083;28;20127;-60
2022/08/14 03:50:58;;;;;;;1.75;1.65;;;25.30;51.10;;;;;;5047746;28;20337;-59
2022/08/14 03:53:27;;;;;;;1.50;1.40;;;25.30;51.10;;;;;;5047558;28;20056;-59
2022/08/14 03:56:01;;;;;;;1.20;1.20;;;25.30;51.10;;;;;;5047025;28;20041;-59
2022/08/14 03:58:28;;;;;;;1.15;1.13;;;25.30;51.60;;;;;;5041754;28;20306;-59
2022/08/14 04:01:04;;;;;;;1.20;1.20;;;25.30;51.00;;;;;;5046926;28;20486;-59
2022/08/14 04:03:34;;;;;;;1.10;1.10;;;25.30;51.00;;;;;;5047862;28;20241;-59
2022/08/14 04:06:04;;;;;;;1.10;1.10;;;25.30;51.10;;;;;;5047026;28;20057;-59
2022/08/14 04:08:37;;;;;;;1.23;1.20;;;25.30;51.00;;;;;;5045663;28;20110;-60
2022/08/14 04:11:09;;;;;;;1.60;1.50;;;25.30;51.60;;;;;;5047474;28;20053;-59
2022/08/14 04:13:39;;;;;;;1.27;1.25;;;25.30;51.00;;;;;;5046682;28;20045;-59
2022/08/14 04:16:11;;;;;;;;;;;25.30;51.00;;;;;;5047670;28;20049;-59
2022/08/14 04:18:41;;;;;;;1.10;1.10;;;25.30;51.00;;;;;;5045971;28;20011;-59
2022/08/14 04:21:10;;;;;;;1.05;1.05;;;25.40;51.00;;;;;;5047603;28;20041;-59
2022/08/14 04:23:38;;;;;;;1.27;1.23;;;25.30;50.90;;;;;;5047098;28;20254;-59
2022/08/14 04:26:09;;;;;;;1.30;1.30;;;25.40;51.00;;;;;;5046850;28;20318;-59
2022/08/14 04:28:53;;;;;;;1.15;1.10;;;25.40;50.90;;;;;;5046924;28;20057;-59
2022/08/14 04:31:39;;;;;;;1.00;1.00;;;25.40;50.90;;;;;;5043603;28;20053;-59
2022/08/14 04:34:26;;;;;;;1.30;1.20;;;25.40;51.50;;;;;;5047106;28;20049;-59
2022/08/14 04:45:39;;;;;;;1.85;1.75;;;25.40;50.70;;;;;;5046951;28;20049;-59
2022/08/14 04:48:15;;;;;;;1.48;1.40;;;25.40;50.70;;;;;;5046405;28;20075;-59
2022/08/14 04:51:04;;;;;;;1.38;1.35;;;25.50;50.70;;;;;;5046054;28;20264;-58
2022/08/14 04:53:33;;;;;;;;;;;25.50;50.70;;;;;;5046642;28;20048;-59
2022/08/14 04:56:15;;;;;;;1.20;1.10;;;25.50;50.60;;;;;;5046610;28;19947;-59
2022/08/14 04:59:03;;;;;;;1.10;1.10;;;25.50;50.50;;;;;;5031846;28;20045;-59
2022/08/14 05:01:38;;;;;;;1.58;1.25;;;25.50;50.50;;;;;;5040071;28;20041;-59
2022/08/14 05:04:07;;;;;;;1.65;1.55;;;25.60;50.50;;;;;;5045390;28;20430;-59
2022/08/14 05:06:42;;;;;;;1.75;1.60;;;25.60;50.40;;;;;;5046136;28;20041;-59
2022/08/14 05:09:09;;;;;;;1.58;1.48;;;25.60;50.40;;;;;;5047129;28;20454;-59
2022/08/14 05:11:41;;;;;;;1.83;1.73;;;25.60;50.60;;;;;;5046277;28;20045;-59
2022/08/14 05:14:11;;;;;;;2.00;1.90;;;25.50;50.80;;;;;;5045915;28;20052;-59
2022/08/14 05:16:58;;;;;;;2.38;2.17;;;25.40;51.00;;;;;;5046405;28;20068;-59
2022/08/14 05:19:28;;;;;;;2.15;2.05;;;25.30;51.50;;;;;;5045470;28;20075;-59
2022/08/14 05:22:00;;;;;;;2.20;2.10;;;25.10;51.90;;;;;;5046211;28;20041;-59
2022/08/14 05:24:46;;;;;;;2.70;2.50;;;24.90;51.90;;;;;;5045124;28;20049;-59
2022/08/14 05:27:18;;;;;;;2.78;2.58;;;24.60;51.40;;;;;;5045366;28;20045;-59
2022/08/14 05:29:52;;;;;;;3.50;3.20;;;24.30;50.90;;;;;;5046134;28;20169;-58
2022/08/14 05:32:22;;;;;;;2.60;2.40;;;23.90;50.50;;;;;;5043690;28;20041;-59
2022/08/14 05:34:56;;;;;;;3.75;2.70;;;23.50;50.20;;;;;;5043349;28;20087;-59
2022/08/14 05:37:23;;;;;;;2.63;2.42;;;23.20;50.30;;;;;;5043875;28;20040;-58
2022/08/14 05:39:53;;;;;;;2.90;2.70;;;22.90;50.20;;;;;;5045332;28;20717;-59
2022/08/14 05:42:21;;;;;;;3.70;2.95;;;22.50;50.30;;;;;;5044092;28;20127;-59
2022/08/14 05:44:55;;;;;;;3.60;3.30;;;22.30;50.30;;;;;;5045259;28;20048;-59
2022/08/14 05:47:23;;;;;;;3.60;3.08;;;22.00;50.80;;;;;;5045954;28;20245;-58
2022/08/14 05:49:57;;;;;;;4.25;3.40;;;21.70;51.20;;;;;;5045352;28;20419;-58
2022/08/14 05:52:24;;;;;;;3.42;3.13;;;21.50;51.60;;;;;;5043936;28;20060;-59
2022/08/14 05:55:10;;;;;;;3.95;3.53;;;21.30;51.90;;;;;;5045015;28;20040;-59
2022/08/14 05:57:56;;;;;;;4.75;3.70;;;21.10;53.50;;;;;;5044567;28;20053;-59
2022/08/14 06:00:27;;;;;;;4.32;3.70;;;20.90;54.00;;;;;;5045415;28;20045;-58
2022/08/14 06:03:04;;;;;;;4.47;4.05;;;20.80;53.80;;;;;;5043678;28;20528;-59
2022/08/14 06:05:33;;;;;;;4.93;4.13;;;20.70;53.90;;;;;;5041089;28;20492;-59
2022/08/14 06:08:05;;;;;;;4.72;3.90;;;20.60;53.70;;;;;;5045291;28;20103;-59
2022/08/14 06:10:48;;;;;;;5.57;4.05;;;20.50;53.60;;;;;;5045099;28;20049;-59
2022/08/14 06:13:17;;;;;;;4.22;3.72;;;20.40;54.40;;;;;;5045011;28;20075;-59
2022/08/14 06:15:45;;;;;;;4.75;3.90;;;20.30;54.50;;;;;;5045023;28;20045;-58
2022/08/14 06:18:15;;;;;;;5.95;4.10;;;20.20;54.80;;;;;;5045372;28;20045;-59
2022/08/14 06:20:43;;;;;;;4.32;3.85;;;20.10;54.90;;;;;;5045086;28;20072;-58
2022/08/14 06:23:12;;;;;;;4.47;4.07;;;20.10;55.30;;;;;;5045610;28;20276;-59
2022/08/14 06:25:41;;;;;;;5.38;4.10;;;20.00;55.10;;;;;;5044123;28;20584;-60
2022/08/14 06:28:21;;;;;;;5.18;4.32;;;19.90;55.80;;;;;;5044809;28;20077;-59
2022/08/14 06:30:54;;;;;;;5.22;4.72;;;19.90;56.00;;;;;;5044261;28;20489;-58
2022/08/14 06:33:22;;;;;;;5.70;4.30;;;19.90;56.20;;;;;;5044890;28;20466;-58
2022/08/14 06:36:09;;;;;;;5.15;4.22;;;19.80;56.30;;;;;;5046378;28;20574;-59
2022/08/14 06:38:37;;;;;;;5.95;4.78;;;19.80;56.80;;;;;;5045903;28;20299;-59
2022/08/14 06:41:04;;;;;;;5.63;5.03;;;19.80;56.60;;;;;;5049105;28;20048;-59
2022/08/14 06:43:36;;;;;;;5.70;4.60;;;19.70;56.80;;;;;;5048507;28;20114;-59
2022/08/14 06:46:11;;;;;;;6.00;4.40;;;19.70;56.60;;;;;;5049290;28;20059;-59
2022/08/14 06:48:58;;;;;;;6.47;5.00;;;19.70;57.10;;;;;;5048739;28;20060;-59
2022/08/14 06:51:25;;;;;;;6.68;5.07;;;19.70;56.90;;;;;;5048295;28;20053;-59
2022/08/14 06:54:11;;;;;;;6.40;5.18;;;19.70;56.80;;;;;;5048665;28;20048;-59
2022/08/14 06:56:39;;;;;;;7.10;5.32;;;19.70;57.30;;;;;;5048416;28;20052;-59
2022/08/14 06:59:12;;;;;;;5.32;4.38;;;19.60;56.80;;;;;;5048410;28;20055;-59
2022/08/14 07:07:36;;;;;;;6.88;5.30;;;19.50;57.20;;;;;;5047196;28;20697;-59
2022/08/14 07:10:06;;;;;;;7.05;5.30;;;19.50;57.10;;;;;;5046613;28;20178;-59
2022/08/14 07:12:42;;;;;;;6.15;4.68;;;19.40;57.60;;;;;;5048737;28;20053;-58
2022/08/14 07:15:28;;;;;;;6.78;5.20;;;19.40;57.90;;;;;;5046323;28;20095;-58
2022/08/14 07:17:58;;;;;;;5.40;4.68;;;19.30;58.10;;;;;;5048634;28;20387;-59
2022/08/14 07:20:27;;;;;;;6.07;5.22;;;19.30;58.40;;;;;;5047155;28;20037;-59
2022/08/14 07:23:02;;;;;;;7.15;5.07;;;19.30;59.10;;;;;;5048066;28;20055;-59
2022/08/14 07:25:38;;;;;;;7.38;5.25;;;19.20;59.00;;;;;;5048203;28;20080;-59
2022/08/14 07:28:10;;;;;;;7.65;5.93;;;19.30;59.20;;;;;;5048192;28;20079;-59
2022/08/14 07:30:39;;;;;;;6.40;5.20;;;19.30;59.40;;;;;;5048301;28;20124;-59
2022/08/14 07:33:16;;;;;;;5.72;5.13;;;19.30;59.50;;;;;;5046545;28;20056;-59
2022/08/14 07:35:51;;;;;;;7.88;5.95;;;19.30;59.20;;;;;;5048303;28;20041;-59
2022/08/14 07:38:26;;;;;;;7.10;5.47;;;19.30;59.20;;;;;;5047936;28;20429;-59
2022/08/14 07:41:04;;;;;;;7.38;5.20;;;19.40;59.50;;;;;;5044974;28;20426;-58
2022/08/14 07:43:41;;;;;;;8.38;5.78;;;19.40;59.60;;;;;;5047993;28;20049;-59
2022/08/14 07:46:09;;;;;;;7.07;5.32;;;19.40;59.20;;;;;;5047493;28;20052;-59
2022/08/14 07:48:42;;;;;;;6.57;5.45;;;19.40;59.10;;;;;;5047466;28;20136;-59
2022/08/14 07:51:09;;;;;;;7.35;5.30;;;19.40;59.00;;;;;;5047605;28;20059;-59
2022/08/14 07:53:39;;;;;;;7.28;5.95;;;19.40;59.30;;;;;;5047766;28;20095;-59
2022/08/14 07:56:09;;;;;;;7.38;6.00;;;19.50;59.20;;;;;;5047615;28;20073;-59
2022/08/14 07:58:57;;;;;;;6.25;4.90;;;19.40;59.30;;;;;;5046643;28;20049;-59
2022/08/14 08:01:26;;;;;;;7.13;5.57;;;19.40;59.30;;;;;;5047475;28;20135;-59
2022/08/14 08:03:58;;;;;;;8.90;5.95;;;19.50;59.30;;;;;;5047094;28;20098;-59
2022/08/14 08:06:28;;;;;;;6.30;4.63;;;19.50;59.30;;;;;;5047410;28;20053;-59
2022/08/14 08:08:59;;;;;;;9.07;6.00;;;19.50;59.40;;;;;;5047579;28;20045;-59
2022/08/14 08:11:32;;;;;;;7.43;5.50;;;19.50;59.60;;;;;;5043331;28;20114;-59
2022/08/14 08:14:09;;;;;;;7.78;5.40;;;19.50;59.80;;;;;;5047553;28;20119;-59
2022/08/14 08:16:46;;;;;;;7.13;5.53;;;19.50;59.60;;;;;;5047035;28;20049;-58
2022/08/14 08:19:17;;;;;;;8.25;6.00;;;19.50;59.60;;;;;;5047810;28;20405;-59
2022/08/14 08:21:46;;;;;;;7.80;5.82;;;19.50;59.60;;;;;;5046680;28;20056;-59
2022/08/14 08:24:15;;;;;;;7.95;5.90;;;19.50;60.00;;;;;;5046137;28;20053;-59
2022/08/14 08:26:47;;;;;;;7.03;5.80;;;19.50;60.30;;;;;;5046722;28;20094;-59
2022/08/14 08:29:22;;;;;;;7.88;5.95;;;19.50;60.00;;;;;;5047295;28;20522;-59
2022/08/14 08:31:56;;;;;;;6.82;5.55;;;19.60;59.70;;;;;;5045853;28;20045;-59
2022/08/14 08:34:44;;;;;;;8.05;5.70;;;19.60;60.20;;;;;;5046970;28;20440;-59
2022/08/14 08:37:13;;;;;;;9.30;5.07;;;19.60;60.30;;;;;;5046926;28;20041;-59
2022/08/14 08:39:46;;;;;;;6.68;5.55;;;19.60;60.10;;;;;;5046787;28;20126;-59
2022/08/14 08:42:31;;;;;;;8.63;6.35;;;19.60;60.10;;;;;;5046619;28;20049;-59
2022/08/14 08:45:15;;;;;;;6.60;5.10;;;19.60;60.30;;;;;;5043224;28;20041;-59
2022/08/14 08:47:44;;;;;;;9.10;6.20;;;19.70;60.30;;;;;;5046920;28;20128;-59
2022/08/14 08:50:24;;;;;;;9.45;6.45;;;19.70;60.40;;;;;;5046575;28;20037;-59
2022/08/14 08:53:00;;;;;;;8.38;6.25;;;19.70;60.30;;;;;;5046351;28;20056;-59
2022/08/14 08:55:31;;;;;;;7.95;6.18;;;19.70;60.20;;;;;;5045863;28;20501;-58
2022/08/14 08:58:03;;;;;;;8.75;5.70;;;19.80;60.40;;;;;;5046683;28;20096;-59
2022/08/14 09:00:40;;;;;;;7.30;5.35;;;19.80;60.50;;;;;;5045252;28;20051;-59
2022/08/14 09:03:12;;;;;;;7.78;5.97;;;19.80;60.40;;;;;;5046745;28;20502;-59
2022/08/14 09:05:53;;;;;;;7.60;6.05;;;19.90;60.40;;;;;;5044887;28;20037;-59
2022/08/14 09:08:26;;;;;;;7.15;5.72;;;19.90;60.10;;;;;;5046625;28;20044;-59
2022/08/14 09:11:08;;;;;;;5.97;5.25;;;19.90;60.40;;;;;;5046209;28;20045;-59
2022/08/14 09:13:50;;;;;;;7.13;5.28;;;19.80;60.30;;;;;;5046034;28;20048;-59
2022/08/14 09:16:22;;;;;;;10.38;5.80;;;19.90;60.60;;;;;;5041167;28;20474;-59
2022/08/14 09:18:51;;;;;;;7.43;4.97;;;19.90;60.60;;;;;;5046452;28;20175;-59
2022/08/14 09:21:20;;;;;;;7.60;6.07;;;20.00;60.40;;;;;;5045653;28;20635;-59
2022/08/14 09:23:53;;;;;;;8.05;5.60;;;20.00;60.60;;;;;;5045693;28;20052;-59
2022/08/14 09:26:43;;;;;;;6.90;4.82;;;20.00;60.40;;;;;;5045639;28;20049;-59
2022/08/14 09:29:16;;;;;;;8.07;5.38;;;20.00;60.20;;;;;;5029188;28;20045;-59
2022/08/14 09:31:46;;;;;;;8.38;5.85;;;20.10;60.50;;;;;;5045711;28;20544;-59
2022/08/14 09:34:56;;;;;;;8.13;6.40;;;20.10;60.20;;;;;;5046043;28;20135;-59
2022/08/14 09:38:00;;;;;;;7.68;5.75;;;20.10;60.20;;;;;;5044506;28;20048;-60
2022/08/14 09:41:07;;;;;;;7.15;5.30;;;20.10;60.20;;;;;;5044177;28;20059;-59
2022/08/14 09:44:05;;;;;;;7.75;6.30;;;20.10;59.80;;;;;;5045732;28;20041;-59
2022/08/14 09:46:34;;;;;;;7.05;5.95;;;20.20;60.00;;;;;;5040522;28;20037;-59
2022/08/14 09:49:06;;;;;;;9.15;6.25;;;20.20;60.00;;;;;;5043596;28;20068;-59
2022/08/14 09:51:44;;;;;;;7.60;6.03;;;20.20;59.80;;;;;;5045230;28;20126;-60
2022/08/14 09:54:39;;;;;;;7.43;5.38;;;20.20;59.90;;;;;;5043802;28;20517;-59
2022/08/14 09:57:09;;;;;;;10.68;6.15;;;20.20;59.20;;;;;;5044354;28;20081;-59
2022/08/14 09:59:46;;;;;;;8.02;5.53;;;20.20;59.30;;;;;;5045557;28;20057;-59
2022/08/14 10:02:22;;;;;;;8.13;6.30;;;20.30;59.30;;;;;;5043755;28;20064;-60
2022/08/14 10:05:06;;;;;;;6.60;5.28;;;20.20;59.10;;;;;;5028044;28;20451;-59
2022/08/14 10:07:50;;;;;;;7.22;6.00;;;20.20;58.90;;;;;;5045439;28;20045;-60
2022/08/14 10:10:34;;;;;;;8.88;6.32;;;20.20;58.90;;;;;;5044932;28;20086;-59
2022/08/14 10:13:06;;;;;;;8.18;5.95;;;20.20;58.90;;;;;;5043895;28;20128;-59
2022/08/14 10:15:45;;;;;;;8.25;5.28;;;20.20;59.20;;;;;;5045230;28;20041;-60
2022/08/14 10:18:16;;;;;;;7.65;5.97;;;20.20;58.90;;;;;;5041575;28;20427;-59
2022/08/14 10:20:56;;;;;;;8.18;5.63;;;20.20;59.40;;;;;;5046511;28;20049;-59
2022/08/14 10:23:26;;;;;;;7.60;5.75;;;20.20;59.40;;;;;;5046354;28;20094;-61
2022/08/14 10:26:05;;;;;;;6.85;5.30;;;20.20;59.10;;;;;;5046079;28;20445;-59
2022/08/14 10:28:42;;;;;;;7.60;5.95;;;20.20;59.10;;;;;;5045981;28;20041;-61
2022/08/14 10:31:33;;;;;;;8.60;6.43;;;20.20;59.40;;;;;;5045341;28;20067;-59
2022/08/14 10:34:19;;;;;;;7.82;5.70;;;20.10;59.20;;;;;;5046357;28;20245;-59
2022/08/14 10:37:06;;;;;;;8.13;6.47;;;20.10;59.10;;;;;;5044908;28;20052;-59
2022/08/14 10:39:43;;;;;;;7.45;5.82;;;20.10;59.20;;;;;;5046209;28;20295;-60
2022/08/14 10:42:39;;;;;;;8.05;5.50;;;20.10;58.80;;;;;;5044930;28;20492;-59
2022/08/14 10:45:32;;;;;;;7.43;5.50;;;20.10;58.90;;;;;;5044719;28;20049;-59
2022/08/14 10:48:12;;;;;;;7.78;6.28;;;20.10;58.80;;;;;;5045996;28;20292;-59
2022/08/14 10:51:00;;;;;;;6.93;5.60;;;20.10;59.50;;;;;;5041108;28;20148;-59
2022/08/14 10:53:33;;;;;;;9.07;6.10;;;20.10;59.30;;;;;;5044868;28;20045;-60
2022/08/14 10:56:05;;;;;;;7.03;5.53;;;20.10;59.20;;;;;;5046336;28;20092;-60
2022/08/14 10:58:47;;;;;;;8.27;6.15;;;20.10;58.70;;;;;;5045823;28;20085;-60
2022/08/14 11:01:15;;;;;;;8.93;6.15;;;20.10;58.50;;;;;;5045738;28;20056;-60
2022/08/14 11:03:42;;;;;;;8.13;5.88;;;20.10;58.40;;;;;;5045966;28;20053;-59
2022/08/14 11:06:23;;;;;;;6.88;5.47;;;20.10;58.10;;;;;;5046084;28;20076;-60
2022/08/14 11:08:54;;;;;;;7.45;5.95;;;20.10;58.00;;;;;;5045542;28;20052;-60
2022/08/14 11:11:26;;;;;;;8.18;6.25;;;20.10;58.00;;;;;;5046071;28;20052;-60
2022/08/14 11:14:06;;;;;;;7.35;5.00;;;20.00;57.80;;;;;;5043800;28;20091;-59
2022/08/14 11:16:39;;;;;;;7.55;5.43;;;20.00;57.80;;;;;;5045027;28;20394;-59
2022/08/14 11:19:21;;;;;;;6.45;5.38;;;20.00;57.80;;;;;;5044802;28;20467;-60
2022/08/14 11:21:52;;;;;;;7.22;5.80;;;19.90;58.00;;;;;;5038703;28;20056;-59
2022/08/14 11:24:27;;;;;;;8.55;5.65;;;19.90;59.20;;;;;;5048262;28;20045;-59
2022/08/14 11:27:18;;;;;;;6.95;5.40;;;19.90;58.80;;;;;;5047201;28;20132;-59
2022/08/14 11:29:48;;;;;;;7.68;6.03;;;20.00;59.10;;;;;;5048320;28;20509;-60
2022/08/14 11:32:28;;;;;;;;;;;20.00;58.90;;;;;;5048001;28;20048;-59
2022/08/14 11:34:57;;;;;;;5.97;5.22;;;19.90;58.80;;;;;;5047791;28;20405;-59
2022/08/14 11:37:26;;;;;;;7.47;5.75;;;20.00;58.80;;;;;;5048005;28;20127;-59
2022/08/14 11:40:15;;;;;;;7.05;5.55;;;20.00;58.80;;;;;;5047813;28;20127;-59
2022/08/14 11:42:54;;;;;;;8.80;5.88;;;20.00;58.80;;;;;;5047576;28;20052;-60
2022/08/14 11:45:31;;;;;;;6.95;5.47;;;20.00;58.40;;;;;;5030725;28;20044;-60
2022/08/14 11:48:27;;;;;;;7.47;5.47;;;20.10;58.30;;;;;;5048125;28;20045;-60
2022/08/14 11:51:19;;;;;;;9.63;5.57;;;20.10;58.10;;;;;;5046206;28;20045;-60
2022/08/14 11:53:59;;;;;;;8.20;5.70;;;20.10;58.10;;;;;;5042958;28;20048;-60
2022/08/14 11:56:38;;;;;;;6.47;5.60;;;20.10;58.40;;;;;;5047308;28;20045;-59
2022/08/14 11:59:08;;;;;;;6.90;5.60;;;20.10;58.30;;;;;;5047533;28;20045;-60
2022/08/14 12:01:37;;;;;;;7.97;5.80;;;20.10;58.30;;;;;;5047206;28;20099;-59
2022/08/14 12:04:19;;;;;;;6.15;5.45;;;20.10;58.20;;;;;;5047604;28;20048;-60
2022/08/14 12:06:59;;;;;;;8.20;5.53;;;20.10;58.20;;;;;;5047653;28;20056;-59
2022/08/14 12:09:35;;;;;;;7.40;5.97;;;20.10;58.20;;;;;;5047120;28;20267;-60
2022/08/14 12:12:18;;;;;;;6.53;5.63;;;20.10;58.50;;;;;;5047323;28;20045;-60
2022/08/14 12:15:05;;;;;;;7.78;5.80;;;20.10;58.20;;;;;;5046314;28;20044;-59
2022/08/14 12:17:47;;;;;;;6.03;5.03;;;20.10;58.40;;;;;;5047746;28;20364;-60
2022/08/14 12:20:16;;;;;;;7.03;5.13;;;20.10;58.30;;;;;;5046942;28;20132;-60
2022/08/14 12:22:59;;;;;;;7.28;5.80;;;20.20;58.40;;;;;;5047477;28;20073;-59
2022/08/14 12:25:27;;;;;;;8.13;6.20;;;20.20;58.80;;;;;;5042284;28;20490;-59
2022/08/14 12:27:56;;;;;;;6.05;5.40;;;20.10;58.60;;;;;;5046832;28;20103;-60
2022/08/14 12:30:32;;;;;;;6.65;5.22;;;20.20;59.00;;;;;;5046916;28;20049;-59
2022/08/14 12:33:27;;;;;;;6.25;5.30;;;20.20;59.00;;;;;;5046720;28;20244;-60
2022/08/14 12:36:01;;;;;;;7.05;5.25;;;20.20;58.70;;;;;;5046853;28;20148;-60
2022/08/14 12:38:41;;;;;;;6.70;5.28;;;20.20;59.20;;;;;;5046924;28;20068;-59
2022/08/14 12:41:17;;;;;;;7.72;5.90;;;20.30;59.30;;;;;;5044977;28;20049;-59
2022/08/14 12:43:55;;;;;;;6.75;5.28;;;20.30;59.30;;;;;;5046920;28;20053;-59
2022/08/14 12:46:39;;;;;;;7.82;5.57;;;20.30;59.40;;;;;;5046111;28;20478;-61
2022/08/14 12:49:12;;;;;;;7.07;5.65;;;20.40;59.40;;;;;;5047020;28;20459;-59
2022/08/14 12:51:43;;;;;;;6.75;5.82;;;20.40;59.40;;;;;;5046503;28;20048;-60
2022/08/14 12:54:16;;;;;;;6.10;4.85;;;20.40;59.40;;;;;;5046379;28;20048;-59
2022/08/14 12:57:07;;;;;;;6.88;5.78;;;20.40;59.20;;;;;;5041607;28;20056;-59
2022/08/14 12:59:37;;;;;;;6.80;5.30;;;20.50;59.20;;;;;;5046385;28;20237;-59
2022/08/14 13:02:22;;;;;;;6.43;5.40;;;20.50;59.30;;;;;;5046444;28;20049;-59
2022/08/14 13:04:54;;;;;;;7.22;5.78;;;20.50;59.20;;;;;;5045499;28;20052;-60
2022/08/14 13:07:26;;;;;;;7.32;5.47;;;20.50;59.20;;;;;;5046655;28;20547;-60
2022/08/14 13:09:59;;;;;;;6.78;5.53;;;20.50;59.30;;;;;;5045660;28;20117;-60
2022/08/14 13:12:49;;;;;;;6.47;5.13;;;20.60;59.10;;;;;;5046449;28;20052;-59
2022/08/14 13:15:38;;;;;;;9.85;5.93;;;20.60;59.30;;;;;;5045349;28;20052;-59
2022/08/14 13:18:09;;;;;;;5.35;4.57;;;20.60;59.20;;;;;;5045892;28;20045;-60
2022/08/14 13:20:40;;;;;;;6.97;5.43;;;20.70;59.00;;;;;;5045765;28;20053;-59
2022/08/14 13:23:18;;;;;;;6.50;5.70;;;20.70;59.00;;;;;;5045026;28;20103;-60
2022/08/14 13:25:57;;;;;;;8.27;5.45;;;20.70;59.10;;;;;;5045896;28;20053;-59
2022/08/14 13:28:26;;;;;;;7.60;5.60;;;20.70;59.00;;;;;;5040736;28;20076;-59
2022/08/14 13:31:04;;;;;;;5.53;4.68;;;20.70;58.90;;;;;;5045736;28;20045;-59
2022/08/14 13:33:38;;;;;;;7.05;5.80;;;20.70;58.70;;;;;;5044318;28;20490;-60
2022/08/14 13:36:08;;;;;;;6.47;4.90;;;20.80;58.70;;;;;;5045771;28;20512;-60
2022/08/14 13:38:37;;;;;;;6.88;5.38;;;20.80;58.50;;;;;;5045653;28;20512;-59
2022/08/14 13:41:05;;;;;;;6.03;4.65;;;20.80;58.60;;;;;;5045318;28;20584;-60
2022/08/14 13:43:33;;;;;;;7.05;5.38;;;20.80;58.70;;;;;;5046303;28;20083;-59
2022/08/14 13:46:18;;;;;;;6.10;5.40;;;20.80;58.30;;;;;;5044286;28;20517;-59
2022/08/14 13:48:46;;;;;;;5.50;4.75;;;20.80;58.30;;;;;;5044563;28;20056;-60
2022/08/14 13:51:15;;;;;;;7.28;5.25;;;20.80;58.20;;;;;;5045431;28;20048;-60